Time;durP1;ratioP1;P1;durP2;ratioP2;P2;SDS_P1;SDS_P2;PMS_P1;PMS_P2;Temp;Humidity;BMP_temperature;BMP_pressure;BME280_temperature;BME280_humidity;BME280_pressure;Samples;Min_cycle;Max_cycle;Signal;HPM_P1;HPM_P2
2023/08/17 03:30:50;;;;;;;;;;;;;;;21.26;81.72;99860.78;1071450;46;20962;31
2023/08/17 08:07:33;;;;;;;;;;;;;;;23.95;72.42;99915.72;1086983;54;19939;-87
2023/08/17 08:08:36;;;;;;;;;;;;;;;24.03;72.37;99917.28;1086934;46;19998;-87
2023/08/17 08:09:39;;;;;;;;;;;;;;;24.09;71.49;99919.03;1087476;47;19942;-87
2023/08/17 08:10:40;;;;;;;;;;;;;;;24.13;70.61;99914.78;1087490;54;20006;-86
2023/08/17 08:11:43;;;;;;;;;;;;;;;24.20;71.29;99931.03;1087176;47;19939;-86
2023/08/17 08:12:44;;;;;;;;;;;;;;;24.26;71.17;99913.69;1087334;54;19942;-86
2023/08/17 08:13:50;;;;;;;;;;;;;;;24.27;71.08;99926.28;1087398;47;19942;-87
2023/08/17 08:15:56;;;;;;;;;;;;;;;24.28;70.76;99924.38;1088154;54;19935;-86
2023/08/17 08:19:24;;;;;;;;;;;;;;;24.35;70.44;99919.63;1087314;54;19994;-86
2023/08/17 08:20:25;;;;;;;;;;;;;;;24.35;70.38;99919.63;1087037;47;21150;-87
2023/08/17 08:21:29;;;;;;;;;;;;;;;24.42;69.99;99917.59;1087219;54;19943;-87
2023/08/17 08:22:32;;;;;;;;;;;;;;;24.49;70.08;99916.63;1087564;54;20958;-87
2023/08/17 08:23:36;;;;;;;;;;;;;;;24.49;69.91;99924.84;1087386;47;19939;-86
2023/08/17 08:24:39;;;;;;;;;;;;;;;24.54;70.23;99919.50;1087216;54;19954;-85
2023/08/17 08:25:42;;;;;;;;;;;;;;;24.39;69.85;99920.81;1087341;47;19939;-87
2023/08/17 08:26:43;;;;;;;;;;;;;;;24.34;70.29;99917.97;1087431;54;19949;-86
2023/08/17 08:27:46;;;;;;;;;;;;;;;24.39;69.54;99923.53;1087623;54;19946;-84
2023/08/17 08:55:44;;;;;;;;;;;;;;;24.83;67.80;99914.09;1087482;54;20762;-88
2023/08/17 08:56:46;;;;;;;;;;;;;;;24.89;68.05;99913.13;1087475;54;19943;-82
2023/08/17 08:57:51;;;;;;;;;;;;;;;25.16;67.03;99915.28;1087571;54;19949;-86
2023/08/17 08:58:53;;;;;;;;;;;;;;;25.36;66.66;99910.19;1087255;47;19942;-86
2023/08/17 08:59:56;;;;;;;;;;;;;;;25.55;65.65;99918.19;1087368;46;19943;-89
2023/08/17 09:00:58;;;;;;;;;;;;;;;25.47;65.87;99913.13;1087613;54;19942;-90
2023/08/17 09:02:02;;;;;;;;;;;;;;;25.22;66.63;99908.84;1087418;47;19942;-88
2023/08/17 09:03:04;;;;;;;;;;;;;;;25.17;66.53;99911.47;1087246;54;20666;-86
2023/08/17 09:04:08;;;;;;;;;;;;;;;25.16;66.54;99905.19;1087648;54;19942;-87
2023/08/17 09:05:10;;;;;;;;;;;;;;;25.19;66.14;99903.84;1087637;54;19943;-87
2023/08/17 09:06:15;;;;;;;;;;;;;;;25.37;66.02;99911.84;1087549;47;19939;-86
2023/08/17 09:07:17;;;;;;;;;;;;;;;25.72;65.33;99912.75;1087720;47;19982;-87
2023/08/17 09:08:23;;;;;;;;;;;;;;;25.99;64.51;99906.59;1087502;54;19949;-87
2023/08/17 09:09:24;;;;;;;;;;;;;;;26.29;64.38;99906.22;1087374;46;19954;-87
2023/08/17 09:10:27;;;;;;;;;;;;;;;26.36;63.53;99905.19;1087555;54;19950;-86
2023/08/17 09:11:31;;;;;;;;;;;;;;;25.97;63.40;99906.84;1087404;47;19942;-85
2023/08/17 09:12:36;;;;;;;;;;;;;;;26.26;63.40;99906.72;1087508;54;20717;-88
2023/08/17 09:13:37;;;;;;;;;;;;;;;26.28;62.76;99906.47;1088200;39;20682;-88
2023/08/17 09:14:40;;;;;;;;;;;;;;;26.12;63.47;99899.94;1087478;47;19938;-89
2023/08/17 09:15:41;;;;;;;;;;;;;;;26.37;62.65;99899.47;1088979;31;20622;-89
2023/08/17 09:16:45;;;;;;;;;;;;;;;26.60;61.75;99898.41;1087473;47;19949;-89
2023/08/17 09:17:47;;;;;;;;;;;;;;;26.89;61.56;99898.22;1087384;47;19943;-86
2023/08/17 09:18:51;;;;;;;;;;;;;;;26.77;61.14;99903.00;1087381;47;19992;-88
2023/08/17 09:19:52;;;;;;;;;;;;;;;26.77;61.50;99897.53;1087514;47;20828;-87
2023/08/17 09:20:56;;;;;;;;;;;;;;;26.77;61.33;99901.13;1087365;47;19994;-86
2023/08/17 09:22:00;;;;;;;;;;;;;;;26.52;61.71;99898.00;1087383;54;19943;-87
2023/08/17 09:28:14;;;;;;;;;;;;;;;26.89;60.48;99900.97;1087964;54;19942;-90
2023/08/17 09:29:19;;;;;;;;;;;;;;;27.05;60.73;99895.66;1087882;46;19942;-88
2023/08/17 09:30:22;;;;;;;;;;;;;;;27.07;60.06;99904.44;1087416;47;19949;-86
2023/08/17 09:31:23;;;;;;;;;;;;;;;27.07;60.29;99893.47;1087510;47;19939;-88
2023/08/17 09:32:32;;;;;;;;;;;;;;;27.35;60.32;99905.28;1088111;39;20654;-88
2023/08/17 09:33:33;;;;;;;;;;;;;;;27.49;59.86;99894.72;1087944;54;19943;-86
2023/08/17 09:34:37;;;;;;;;;;;;;;;27.69;59.18;99899.56;1087750;54;21016;-86
2023/08/17 09:35:38;;;;;;;;;;;;;;;27.67;58.93;99901.75;1087475;46;19938;-86
2023/08/17 09:36:41;;;;;;;;;;;;;;;27.81;58.46;99902.13;1087444;54;19995;-87
2023/08/17 09:37:42;;;;;;;;;;;;;;;28.04;57.68;99900.91;1087683;54;19994;-85
2023/08/17 09:38:46;;;;;;;;;;;;;;;28.15;56.32;99897.16;1087821;54;19942;-85
2023/08/17 09:39:46;;;;;;;;;;;;;;;28.35;56.80;99889.31;1087821;54;19942;-86
2023/08/17 09:40:51;;;;;;;;;;;;;;;28.14;56.39;99887.28;1087542;46;19964;-86
2023/08/17 09:41:54;;;;;;;;;;;;;;;28.27;56.35;99893.38;1087507;47;20956;-86
2023/08/17 09:44:03;;;;;;;;;;;;;;;28.38;55.46;99883.28;1087779;54;19942;-86
2023/08/17 09:45:04;;;;;;;;;;;;;;;28.35;55.83;99883.81;1087609;54;19949;-86
2023/08/17 09:46:07;;;;;;;;;;;;;;;28.23;56.10;99879.34;1087609;46;19938;-86
2023/08/17 09:47:10;;;;;;;;;;;;;;;28.45;56.09;99876.44;1087623;46;19962;-87
2023/08/17 09:48:14;;;;;;;;;;;;;;;28.57;56.04;99876.22;1087526;46;19967;-84
2023/08/17 09:49:14;;;;;;;;;;;;;;;28.45;55.37;99875.59;1087528;54;19943;-89
2023/08/17 09:50:25;;;;;;;;;;;;;;;28.12;56.40;99874.88;1087624;47;19946;-85
2023/08/17 09:51:30;;;;;;;;;;;;;;;28.31;56.04;99878.03;1087593;47;19990;-85
2023/08/17 09:52:41;;;;;;;;;;;;;;;28.38;55.47;99875.84;1087818;54;20339;-86
2023/08/17 10:00:06;;;;;;;;;;;;;;;29.34;54.34;99861.84;1087782;54;19926;-85
2023/08/17 10:01:07;;;;;;;;;;;;;;;29.44;54.01;99861.00;1087731;54;19963;-85
2023/08/17 10:02:17;;;;;;;;;;;;;;;29.53;53.25;99864.06;1086965;46;19963;-85
2023/08/17 10:03:19;;;;;;;;;;;;;;;29.62;53.28;99854.13;1087066;47;19939;-85
2023/08/17 10:04:20;;;;;;;;;;;;;;;29.65;53.04;99853.59;1087056;47;19942;-85
2023/08/17 10:05:25;;;;;;;;;;;;;;;29.87;52.06;99853.28;1087231;54;19946;-86
2023/08/17 10:06:27;;;;;;;;;;;;;;;29.54;52.26;99854.69;1087227;47;19945;-86
2023/08/17 10:07:36;;;;;;;;;;;;;;;29.61;52.81;99849.72;1087316;47;19938;-84
2023/08/17 10:09:45;;;;;;;;;;;;;;;29.32;52.96;99846.69;1087980;54;19954;-84
2023/08/17 10:10:46;;;;;;;;;;;;;;;29.39;53.36;99856.34;1090674;39;20308;-85
2023/08/17 10:11:52;;;;;;;;;;;;;;;29.52;52.89;99848.63;1087082;47;19938;-85
2023/08/17 10:12:57;;;;;;;;;;;;;;;29.45;52.81;99850.84;1087556;54;19946;-85
2023/08/17 10:14:05;;;;;;;;;;;;;;;28.99;53.00;99849.69;1087830;54;19973;-87
2023/08/17 10:15:11;;;;;;;;;;;;;;;29.08;53.39;99848.06;1088252;39;20689;-87
2023/08/17 10:16:19;;;;;;;;;;;;;;;29.19;52.70;99845.31;1087707;47;19938;-85
2023/08/17 10:17:25;;;;;;;;;;;;;;;29.34;52.49;99850.84;1087367;54;19974;-85
2023/08/17 10:18:31;;;;;;;;;;;;;;;29.51;52.21;99845.06;1087635;54;20027;-86
2023/08/17 10:19:37;;;;;;;;;;;;;;;29.59;51.75;99846.41;1087706;47;19954;-86
2023/08/17 10:20:44;;;;;;;;;;;;;;;29.79;51.88;99845.59;1088101;47;19942;-86
2023/08/17 10:21:54;;;;;;;;;;;;;;;30.03;51.21;99845.84;1088050;54;19953;-87
2023/08/17 10:22:59;;;;;;;;;;;;;;;30.30;50.89;99850.16;1087756;47;19939;-87
2023/08/17 10:24:05;;;;;;;;;;;;;;;30.42;50.32;99841.56;1087493;54;19942;-87
2023/08/17 10:25:08;;;;;;;;;;;;;;;30.33;50.37;99846.81;1087378;47;19965;-84
2023/08/17 10:26:14;;;;;;;;;;;;;;;30.23;50.23;99843.28;1087727;47;19927;-88
2023/08/17 10:29:31;;;;;;;;;;;;;;;30.26;50.49;99856.50;1087778;54;19979;-86
2023/08/17 10:30:35;;;;;;;;;;;;;;;30.55;50.04;99845.66;1087465;47;20351;-87
2023/08/17 10:31:38;;;;;;;;;;;;;;;30.76;49.35;99851.06;1087511;47;19946;-88
2023/08/17 10:32:44;;;;;;;;;;;;;;;30.88;49.15;99853.47;1087637;47;20352;-87
2023/08/17 10:33:48;;;;;;;;;;;;;;;30.63;49.13;99850.56;1087654;54;20753;-88
2023/08/17 10:34:50;;;;;;;;;;;;;;;30.76;48.70;99854.63;1087671;47;19943;-85
2023/08/17 10:35:54;;;;;;;;;;;;;;;30.84;48.86;99850.47;1087424;54;19949;-86
2023/08/17 10:36:57;;;;;;;;;;;;;;;30.80;48.54;99846.63;1087820;54;19942;-87
2023/08/17 10:38:01;;;;;;;;;;;;;;;30.46;49.51;99841.81;1087905;54;19946;-85
2023/08/17 10:43:59;;;;;;;;;;;;;;;30.03;50.38;99851.34;1090982;39;20606;-89
2023/08/17 10:46:20;;;;;;;;;;;;;;;29.95;50.48;99864.88;1087489;54;19942;-86
2023/08/17 10:47:22;;;;;;;;;;;;;;;30.40;49.34;99851.22;1087256;47;19938;-87
2023/08/17 10:48:30;;;;;;;;;;;;;;;30.44;49.20;99846.78;1089245;39;20726;-89
2023/08/17 10:49:30;;;;;;;;;;;;;;;30.38;49.49;99856.19;1087018;47;19938;-87
2023/08/17 10:50:34;;;;;;;;;;;;;;;30.60;49.12;99848.41;1088279;39;22156;-83
2023/08/17 10:51:35;;;;;;;;;;;;;;;30.81;48.22;99845.50;1086766;54;20718;-85
2023/08/17 10:52:40;;;;;;;;;;;;;;;30.92;47.99;99855.38;1087015;54;20014;-85
2023/08/17 10:53:43;;;;;;;;;;;;;;;30.91;48.82;99848.22;1086995;54;19967;-83
2023/08/17 10:54:43;;;;;;;;;;;;;;;30.86;48.26;99841.91;1086923;47;19969;-83
2023/08/17 10:55:49;;;;;;;;;;;;;;;30.87;48.36;99849.91;1086939;47;19938;-82
2023/08/17 10:56:50;;;;;;;;;;;;;;;30.89;48.08;99850.44;1088836;39;20748;-84
2023/08/17 10:57:54;;;;;;;;;;;;;;;30.41;49.03;99845.41;1086975;54;19987;-83
2023/08/17 10:58:55;;;;;;;;;;;;;;;30.40;49.03;99840.19;1086893;54;19942;-84
2023/08/17 11:00:26;;;;;;;;;;;;;;;30.58;48.39;99845.09;1086879;47;19947;-83
2023/08/17 11:01:36;;;;;;;;;;;;;;;29.99;49.63;99841.97;1086714;54;20782;-84
2023/08/17 11:02:40;;;;;;;;;;;;;;;29.71;50.58;99844.22;1086946;47;19939;-83
2023/08/17 11:03:44;;;;;;;;;;;;;;;29.79;50.43;99833.72;1086951;54;19943;-83
2023/08/17 11:04:50;;;;;;;;;;;;;;;29.71;50.58;99833.19;1086861;54;20992;-83
2023/08/17 11:05:55;;;;;;;;;;;;;;;29.62;50.58;99837.63;1087017;54;20015;-83
2023/08/17 11:07:03;;;;;;;;;;;;;;;29.36;51.34;99843.16;1086881;47;19939;-83
2023/08/17 11:08:08;;;;;;;;;;;;;;;29.39;51.56;99842.56;1086874;54;19949;-81
2023/08/17 11:09:10;;;;;;;;;;;;;;;29.23;52.07;99839.00;1086889;47;19939;-83
2023/08/17 11:10:13;;;;;;;;;;;;;;;29.48;51.29;99839.25;1086801;54;19943;-83
2023/08/17 11:11:15;;;;;;;;;;;;;;;29.39;51.28;99836.25;1088405;39;20594;-83
2023/08/17 11:12:27;;;;;;;;;;;;;;;29.28;52.16;99829.91;1086800;54;19943;-84
2023/08/17 11:13:29;;;;;;;;;;;;;;;29.31;51.52;99832.09;1086811;47;19939;-84
2023/08/17 11:14:35;;;;;;;;;;;;;;;29.14;51.45;99829.63;1086937;54;19948;-85
2023/08/17 11:15:42;;;;;;;;;;;;;;;28.79;52.21;99836.69;1087017;47;19942;-83
2023/08/17 11:16:49;;;;;;;;;;;;;;;28.84;52.07;99833.13;1086792;47;19939;-82
2023/08/17 11:17:49;;;;;;;;;;;;;;;29.03;51.69;99828.75;1086692;47;19939;-83
2023/08/17 11:18:56;;;;;;;;;;;;;;;28.98;51.97;99837.03;1086758;54;19949;-84
2023/08/17 11:19:57;;;;;;;;;;;;;;;29.19;51.75;99826.84;1086923;47;21194;-84
2023/08/17 11:21:02;;;;;;;;;;;;;;;29.02;52.23;99829.88;1086827;47;19943;-84
2023/08/17 11:22:07;;;;;;;;;;;;;;;28.97;52.60;99829.03;1086624;47;19943;-84
2023/08/17 11:23:29;;;;;;;;;;;;;;;29.09;52.05;99826.84;1086644;47;19939;-84
2023/08/17 11:24:39;;;;;;;;;;;;;;;29.15;51.80;99825.75;1087073;47;19946;-85
2023/08/17 11:25:43;;;;;;;;;;;;;;;29.24;51.78;99828.78;1087084;54;19966;-86
2023/08/17 11:26:46;;;;;;;;;;;;;;;29.21;51.74;99834.84;1087054;54;20760;-87
2023/08/17 11:27:47;;;;;;;;;;;;;;;29.21;51.30;99830.16;1087112;54;19980;-86
2023/08/17 11:28:50;;;;;;;;;;;;;;;29.11;51.36;99830.16;1087118;54;19942;-83
2023/08/17 11:29:51;;;;;;;;;;;;;;;29.03;51.72;99834.28;1087072;47;19938;-84
2023/08/17 11:31:01;;;;;;;;;;;;;;;29.06;51.50;99832.88;1087115;47;19938;-84
2023/08/17 11:32:08;;;;;;;;;;;;;;;29.07;50.93;99829.03;1086970;54;19943;-84
2023/08/17 11:33:14;;;;;;;;;;;;;;;29.05;50.71;99826.56;1088933;39;21048;-86
2023/08/17 11:34:15;;;;;;;;;;;;;;;29.19;50.50;99820.53;1087881;54;19949;-86
2023/08/17 11:36:25;;;;;;;;;;;;;;;29.03;50.54;99815.00;1088263;54;20013;-87
2023/08/17 11:39:45;;;;;;;;;;;;;;;28.95;50.58;99818.31;1087804;54;20693;-86
2023/08/17 11:41:52;;;;;;;;;;;;;;;29.01;50.53;99802.63;1087944;54;19954;-85
2023/08/17 11:42:53;;;;;;;;;;;;;;;29.06;50.39;99800.72;1087435;46;19946;-88
2023/08/17 11:43:58;;;;;;;;;;;;;;;29.16;50.37;99810.06;1087903;46;19959;-88
2023/08/17 11:44:59;;;;;;;;;;;;;;;29.33;50.04;99798.84;1087793;54;19942;-87
2023/08/17 11:46:03;;;;;;;;;;;;;;;29.31;49.66;99806.50;1087651;54;19973;-86
2023/08/17 11:47:04;;;;;;;;;;;;;;;29.23;49.88;99805.13;1087576;54;19943;-88
2023/08/17 11:48:07;;;;;;;;;;;;;;;29.37;49.94;99800.75;1087337;54;19943;-85
2023/08/17 11:49:11;;;;;;;;;;;;;;;29.44;49.68;99808.72;1087818;39;20185;-84
2023/08/17 11:50:12;;;;;;;;;;;;;;;29.39;49.25;99815.03;1087451;47;19961;-85
2023/08/17 11:52:23;;;;;;;;;;;;;;;29.57;48.91;99815.56;1085091;39;21340;-88
2023/08/17 11:54:42;;;;;;;;;;;;;;;29.65;48.67;99812.28;1088882;54;19939;-88
2023/08/17 11:58:04;;;;;;;;;;;;;;;29.36;48.91;99815.63;1088290;54;19938;-87
2023/08/17 12:00:12;;;;;;;;;;;;;;;29.64;48.22;99807.03;1088233;54;19941;-86
2023/08/17 12:01:15;;;;;;;;;;;;;;;29.63;48.18;99808.97;1087693;47;19939;-86
2023/08/17 12:02:19;;;;;;;;;;;;;;;29.72;48.48;99810.06;1087841;46;20662;-86
2023/08/17 12:03:22;;;;;;;;;;;;;;;29.81;48.10;99803.97;1087862;54;19974;-87
2023/08/17 12:04:25;;;;;;;;;;;;;;;29.69;47.75;99804.28;1087968;54;19943;-86
2023/08/17 12:06:32;;;;;;;;;;;;;;;29.75;48.05;99794.09;1084366;46;19951;31
2023/08/17 12:07:34;;;;;;;;;;;;;;;29.71;48.34;99796.56;1081597;39;21323;31
2023/08/17 12:08:39;;;;;;;;;;;;;;;29.78;48.04;99802.63;1075527;54;20752;-88
2023/08/17 12:09:40;;;;;;;;;;;;;;;29.76;47.89;99798.50;1087692;47;19945;-88
2023/08/17 12:10:44;;;;;;;;;;;;;;;29.79;47.70;99804.28;1086246;54;19949;31
2023/08/17 12:12:50;;;;;;;;;;;;;;;29.93;47.68;99809.22;1087919;54;19946;-89
2023/08/17 12:15:02;;;;;;;;;;;;;;;29.87;47.83;99813.88;1088220;54;20868;-90
2023/08/17 12:16:03;;;;;;;;;;;;;;;29.89;48.01;99817.19;1091589;39;20787;-88
2023/08/17 12:17:07;;;;;;;;;;;;;;;29.93;47.93;99812.81;1088020;54;19942;-90
2023/08/17 12:18:09;;;;;;;;;;;;;;;30.01;47.77;99814.97;1087896;47;20025;-90
2023/08/17 12:19:15;;;;;;;;;;;;;;;29.89;47.64;99817.19;1088101;47;19923;-87
2023/08/17 12:21:22;;;;;;;;;;;;;;;30.21;46.61;99816.00;1088165;54;20772;-87
2023/08/17 12:22:24;;;;;;;;;;;;;;;30.33;46.67;99816.50;1087974;54;20005;-86
2023/08/17 12:23:28;;;;;;;;;;;;;;;30.38;46.51;99818.41;1088100;54;19942;-90
2023/08/17 12:24:30;;;;;;;;;;;;;;;30.32;46.12;99820.34;1088012;54;19970;-88
2023/08/17 12:25:33;;;;;;;;;;;;;;;30.40;46.34;99818.13;1087540;47;19950;-86
2023/08/17 12:26:35;;;;;;;;;;;;;;;30.42;46.25;99822.25;1087580;54;19966;-87
2023/08/17 12:27:39;;;;;;;;;;;;;;;30.54;46.15;99821.13;1087803;54;19946;-87
2023/08/17 12:28:40;;;;;;;;;;;;;;;30.59;46.49;99818.34;1090193;39;20712;-88
2023/08/17 12:29:47;;;;;;;;;;;;;;;30.59;46.44;99813.66;1088954;39;20144;-88
2023/08/17 12:31:00;;;;;;;;;;;;;;;30.69;46.10;99818.28;1087552;47;19945;-86
2023/08/17 12:32:01;;;;;;;;;;;;;;;30.55;45.98;99809.81;1087105;47;20023;-84
2023/08/17 12:33:04;;;;;;;;;;;;;;;30.55;46.19;99809.81;1087073;54;19948;-85
2023/08/17 12:34:05;;;;;;;;;;;;;;;30.60;46.49;99815.31;1087009;46;19939;-86
2023/08/17 12:35:14;;;;;;;;;;;;;;;30.70;46.16;99813.59;1087167;47;19934;-87
2023/08/17 12:36:17;;;;;;;;;;;;;;;30.70;46.74;99819.13;1087516;47;19939;-88
2023/08/17 12:37:21;;;;;;;;;;;;;;;30.65;46.95;99817.22;1087523;46;19923;-86
2023/08/17 12:38:23;;;;;;;;;;;;;;;30.53;47.32;99813.97;1087298;47;21032;-89
2023/08/17 12:39:27;;;;;;;;;;;;;;;30.53;47.38;99809.25;1087277;47;19954;-87
2023/08/17 12:40:27;;;;;;;;;;;;;;;30.34;48.02;99812.63;1087269;47;19964;-87
2023/08/17 12:41:31;;;;;;;;;;;;;;;30.43;47.75;99815.63;1087258;47;19938;-90
2023/08/17 12:42:31;;;;;;;;;;;;;;;30.28;48.15;99812.94;1087672;47;19939;-87
2023/08/17 12:43:35;;;;;;;;;;;;;;;30.28;48.04;99827.56;1087277;47;19943;-88
2023/08/17 12:44:35;;;;;;;;;;;;;;;30.22;47.84;99822.34;1087120;47;19945;-88
2023/08/17 12:45:39;;;;;;;;;;;;;;;30.02;48.37;99816.63;1087120;47;19945;-86
2023/08/17 12:46:40;;;;;;;;;;;;;;;30.06;48.48;99816.06;1087008;47;20036;-84
2023/08/17 12:47:41;;;;;;;;;;;;;;;30.10;48.68;99817.16;1087302;47;20897;-87
2023/08/17 12:48:44;;;;;;;;;;;;;;;30.18;48.27;99814.63;1087525;54;20029;-88
2023/08/17 12:49:45;;;;;;;;;;;;;;;30.26;48.24;99815.16;1087433;46;19938;-87
2023/08/17 12:50:51;;;;;;;;;;;;;;;30.35;48.27;99808.78;1087391;54;19942;-86
2023/08/17 12:51:52;;;;;;;;;;;;;;;30.40;48.26;99810.69;1087375;54;19942;-88
2023/08/17 12:52:56;;;;;;;;;;;;;;;30.28;48.79;99805.50;1087209;54;19943;-88
2023/08/17 12:53:57;;;;;;;;;;;;;;;30.05;49.88;99806.97;1087179;54;19965;-85
2023/08/17 12:55:00;;;;;;;;;;;;;;;29.84;51.27;99811.69;1087087;47;19938;-88
2023/08/17 12:56:02;;;;;;;;;;;;;;;29.96;51.30;99817.75;1088242;39;21139;-88
2023/08/17 12:57:06;;;;;;;;;;;;;;;29.85;52.00;99824.38;1087435;47;19964;-90
2023/08/17 12:59:12;;;;;;;;;;;;;;;29.35;53.86;99824.13;1088239;54;19934;-88
2023/08/17 13:00:14;;;;;;;;;;;;;;;29.04;54.68;99830.44;1089876;39;20800;-88
2023/08/17 13:02:19;;;;;;;;;;;;;;;28.93;55.18;99826.00;1087563;54;19958;-87
2023/08/17 13:03:21;;;;;;;;;;;;;;;28.97;55.05;99835.38;1087766;54;19950;-88
2023/08/17 13:04:21;;;;;;;;;;;;;;;29.07;54.61;99829.03;1087789;47;19963;-87
2023/08/17 13:05:25;;;;;;;;;;;;;;;29.10;54.82;99836.75;1087743;47;20683;-88
2023/08/17 13:06:28;;;;;;;;;;;;;;;28.86;54.98;99825.44;1087733;54;19985;-88
2023/08/17 13:07:32;;;;;;;;;;;;;;;28.78;55.20;99827.63;1087983;54;19988;-89
2023/08/17 13:10:44;;;;;;;;;;;;;;;28.42;55.75;99849.50;1088107;54;20033;-87
2023/08/17 13:12:49;;;;;;;;;;;;;;;28.50;55.76;99853.63;1088009;47;19943;-87
2023/08/17 13:16:18;;;;;;;;;;;;;;;28.29;56.08;99847.22;1086796;54;19943;-86
2023/08/17 13:17:19;;;;;;;;;;;;;;;28.19;56.19;99845.28;1087004;47;21171;-83
2023/08/17 13:18:23;;;;;;;;;;;;;;;28.27;56.01;99847.50;1086994;47;19946;-87
2023/08/17 13:19:24;;;;;;;;;;;;;;;27.96;56.36;99849.22;1087390;54;19998;-87
2023/08/17 13:20:27;;;;;;;;;;;;;;;27.83;56.40;99840.34;1087485;54;19942;-86
2023/08/17 13:21:31;;;;;;;;;;;;;;;27.77;56.60;99838.69;1087485;54;19943;-87
2023/08/17 13:23:58;;;;;;;;;;;;;;;27.70;56.35;99849.03;1087975;54;19942;-85
2023/08/17 13:24:59;;;;;;;;;;;;;;;27.58;56.80;99851.16;1087634;54;19943;-85
2023/08/17 13:26:03;;;;;;;;;;;;;;;27.52;56.99;99851.13;1087737;54;19943;-83
2023/08/17 13:27:04;;;;;;;;;;;;;;;27.67;56.37;99852.34;1087471;54;19942;-83
2023/08/17 13:28:08;;;;;;;;;;;;;;;27.45;57.17;99856.00;1087622;54;19943;-82
2023/08/17 13:29:09;;;;;;;;;;;;;;;27.37;57.66;99864.69;1087587;54;19942;-81
2023/08/17 13:30:13;;;;;;;;;;;;;;;27.30;57.99;99862.16;1087244;47;19995;-85
2023/08/17 13:31:14;;;;;;;;;;;;;;;27.57;57.34;99861.31;1087135;46;21214;-83
2023/08/17 13:32:23;;;;;;;;;;;;;;;27.69;56.79;99850.13;1087171;47;19950;-86
2023/08/17 13:33:24;;;;;;;;;;;;;;;27.81;56.49;99853.53;1087091;47;19999;-84
2023/08/17 13:34:25;;;;;;;;;;;;;;;27.55;57.14;99845.09;1087038;47;19947;-86
2023/08/17 13:35:28;;;;;;;;;;;;;;;27.62;57.02;99846.78;1087041;54;19950;-86
2023/08/17 13:36:32;;;;;;;;;;;;;;;27.45;57.31;99853.25;1087341;47;20085;-86
2023/08/17 13:37:35;;;;;;;;;;;;;;;27.51;57.38;99841.22;1087229;54;19974;-86
2023/08/17 13:38:38;;;;;;;;;;;;;;;27.55;57.06;99845.09;1087043;47;19939;-86
2023/08/17 13:39:41;;;;;;;;;;;;;;;27.67;56.66;99841.34;1090463;39;20221;-86
2023/08/17 13:44:20;;;;;;;;;;;;;;;27.48;57.15;99843.66;1087738;54;19926;-87
2023/08/17 13:45:31;;;;;;;;;;;;;;;27.28;57.84;99847.03;1092844;31;20720;-87
2023/08/17 13:46:34;;;;;;;;;;;;;;;27.12;58.32;99838.66;1086774;47;19938;-85
2023/08/17 13:47:35;;;;;;;;;;;;;;;27.14;58.39;99844.72;1087160;54;19942;-85
2023/08/17 13:48:39;;;;;;;;;;;;;;;27.12;58.43;99835.91;1087056;46;19939;-86
2023/08/17 13:49:39;;;;;;;;;;;;;;;27.16;58.53;99837.06;1087183;54;20010;-86
2023/08/17 13:50:43;;;;;;;;;;;;;;;27.31;58.37;99824.56;1087297;46;19942;-85
2023/08/17 13:51:46;;;;;;;;;;;;;;;27.42;58.12;99820.00;1087293;46;19939;-88
2023/08/17 13:59:49;;;;;;;;;;;;;;;27.14;59.00;99800.81;1086704;54;19942;-87
2023/08/17 14:00:50;;;;;;;;;;;;;;;27.03;59.12;99799.91;1087318;54;19942;-85
2023/08/17 14:01:55;;;;;;;;;;;;;;;27.03;58.91;99785.38;1086955;47;19964;-84
2023/08/17 14:02:56;;;;;;;;;;;;;;;26.91;59.25;99794.59;1087202;54;21224;-82
2023/08/17 14:03:59;;;;;;;;;;;;;;;26.94;59.29;99791.31;1087516;54;19942;-84
2023/08/17 14:05:00;;;;;;;;;;;;;;;27.03;58.95;99786.22;1087223;47;19942;-83
2023/08/17 14:06:04;;;;;;;;;;;;;;;26.94;59.43;99774.88;1087184;47;19970;-82
2023/08/17 14:07:08;;;;;;;;;;;;;;;27.09;58.89;99776.13;1087693;54;19950;-85
2023/08/17 14:08:13;;;;;;;;;;;;;;;27.04;59.51;99765.94;1087500;54;19950;-84
2023/08/17 14:09:14;;;;;;;;;;;;;;;27.06;59.52;99765.66;1087815;54;19966;-86
2023/08/17 14:10:17;;;;;;;;;;;;;;;27.04;59.46;99763.19;1087645;47;19927;-86
2023/08/17 14:11:18;;;;;;;;;;;;;;;27.03;59.49;99755.19;1087792;47;19930;-86
2023/08/17 14:13:24;;;;;;;;;;;;;;;27.08;59.12;99758.81;1087556;54;20503;-86
2023/08/17 14:14:25;;;;;;;;;;;;;;;26.92;58.96;99757.84;1087366;54;19934;-86
2023/08/17 14:15:29;;;;;;;;;;;;;;;26.89;59.21;99761.13;1087632;47;19967;-87
2023/08/17 14:16:30;;;;;;;;;;;;;;;26.90;59.29;99761.94;1087930;46;19942;-87
2023/08/17 14:17:33;;;;;;;;;;;;;;;26.96;59.14;99755.44;1087508;47;19954;-84
2023/08/17 14:18:34;;;;;;;;;;;;;;;27.01;58.75;99754.66;1087413;46;19966;-85
2023/08/17 14:19:38;;;;;;;;;;;;;;;27.08;58.48;99760.75;1087335;54;19968;-83
2023/08/17 14:20:38;;;;;;;;;;;;;;;26.95;59.04;99764.75;1087619;54;19942;-89
2023/08/17 14:23:59;;;;;;;;;;;;;;;26.94;59.15;99774.88;1082704;54;19947;-88
2023/08/17 14:25:03;;;;;;;;;;;;;;;27.02;58.83;99775.47;1088864;39;20980;-87
2023/08/17 14:27:23;;;;;;;;;;;;;;;;;;;;;
2023/08/17 14:31:23;;;;;;;;;;;;;;;27.00;58.52;99778.50;1087437;54;19939;-84
2023/08/17 14:32:48;;;;;;;;;;;;;;;26.99;58.55;99771.34;1086943;47;19934;-84
2023/08/17 14:33:54;;;;;;;;;;;;;;;27.11;58.28;99762.13;1086845;47;19947;-81
2023/08/17 14:34:55;;;;;;;;;;;;;;;27.19;58.16;99767.97;1086901;47;19946;-82
2023/08/17 14:35:58;;;;;;;;;;;;;;;27.28;57.86;99759.25;1087068;54;20002;-83
2023/08/17 14:36:59;;;;;;;;;;;;;;;27.29;57.73;99764.47;1088478;39;20270;-84
2023/08/17 14:38:03;;;;;;;;;;;;;;;27.34;57.53;99760.94;1087011;54;19968;-81
2023/08/17 14:39:04;;;;;;;;;;;;;;;27.37;57.56;99760.41;1086948;47;19946;-86
2023/08/17 14:40:10;;;;;;;;;;;;;;;27.38;57.27;99759.31;1086986;47;19946;-83
2023/08/17 14:41:12;;;;;;;;;;;;;;;27.35;57.12;99757.91;1086890;54;20014;-84
2023/08/17 14:42:15;;;;;;;;;;;;;;;27.39;57.11;99753.56;1086880;47;20047;-83
2023/08/17 14:43:16;;;;;;;;;;;;;;;27.45;57.00;99753.63;1086802;54;19943;-82
2023/08/17 14:44:19;;;;;;;;;;;;;;;27.48;56.92;99747.59;1086842;47;19939;-83
2023/08/17 14:45:20;;;;;;;;;;;;;;;27.51;56.89;99747.91;1086810;47;19939;-83
2023/08/17 14:47:40;;;;;;;;;;;;;;;27.49;57.33;99747.34;1086679;47;19939;-83
2023/08/17 14:48:41;;;;;;;;;;;;;;;27.55;57.11;99727.09;1086849;47;19938;-85
2023/08/17 14:49:41;;;;;;;;;;;;;;;27.59;57.18;99729.28;1086992;47;19939;-83
2023/08/17 14:50:52;;;;;;;;;;;;;;;27.61;56.87;99729.84;1087082;47;20351;-86
2023/08/17 14:51:53;;;;;;;;;;;;;;;27.61;57.03;99727.94;1087004;54;19947;-84
2023/08/17 14:52:56;;;;;;;;;;;;;;;27.61;56.83;99727.09;1086844;54;19942;-86
2023/08/17 14:53:57;;;;;;;;;;;;;;;27.66;56.69;99724.41;1086948;54;19946;-86
2023/08/17 14:55:00;;;;;;;;;;;;;;;27.66;56.78;99721.66;1086820;47;19939;-85
2023/08/17 14:56:04;;;;;;;;;;;;;;;27.67;57.04;99726.88;1086881;54;19951;-84
2023/08/17 14:57:08;;;;;;;;;;;;;;;27.72;56.53;99720.56;1086700;46;19951;-86
2023/08/17 14:58:09;;;;;;;;;;;;;;;27.78;56.67;99719.50;1086843;47;19938;-84
2023/08/17 14:59:14;;;;;;;;;;;;;;;27.81;56.74;99726.41;1086850;54;19942;-85
2023/08/17 15:02:17;;;;;;;;;;;;;;;27.81;56.35;99718.97;1086944;54;20838;-86
2023/08/17 15:03:25;;;;;;;;;;;;;;;27.75;57.15;99727.44;1086767;47;19943;-85
2023/08/17 15:04:32;;;;;;;;;;;;;;;27.81;56.41;99710.72;1086821;54;19969;-85
2023/08/17 15:05:38;;;;;;;;;;;;;;;27.86;56.66;99718.16;1087121;47;19998;-83
2023/08/17 15:06:47;;;;;;;;;;;;;;;27.80;56.39;99716.50;1086924;47;19939;-85
2023/08/17 15:07:57;;;;;;;;;;;;;;;27.78;56.67;99711.25;1086723;47;19994;-86
2023/08/17 15:11:01;;;;;;;;;;;;;;;;;;;;;
2023/08/17 15:13:49;;;;;;;;;;;;;;;28.06;55.58;99727.59;1087001;54;21173;-85
2023/08/17 15:14:50;;;;;;;;;;;;;;;27.97;55.66;99719.03;1086993;47;19949;-84
2023/08/17 15:15:53;;;;;;;;;;;;;;;28.03;55.81;99718.78;1086882;47;19939;-85
2023/08/17 15:16:54;;;;;;;;;;;;;;;27.99;55.78;99719.59;1087418;39;20671;-85
2023/08/17 15:17:58;;;;;;;;;;;;;;;27.91;55.96;99720.09;1087096;54;19959;-83
2023/08/17 15:18:58;;;;;;;;;;;;;;;27.83;55.75;99716.78;1087030;54;19973;-82
2023/08/17 15:21:28;;;;;;;;;;;;;;;27.86;55.79;99713.50;1088612;39;20695;-85